Time;durP1;ratioP1;P1;durP2;ratioP2;P2;SDS_P1;SDS_P2;PMS_P1;PMS_P2;Temp;Humidity;BMP_temperature;BMP_pressure;BME280_temperature;BME280_humidity;BME280_pressure;Samples;Min_cycle;Max_cycle;Signal;HPM_P1;HPM_P2
2024/02/08 00:01:49;;;;;;;7.00;6.10;;;;;;;-14.74;90.21;99683.28;5052490;28;20044;-66
2024/02/08 00:04:14;;;;;;;10.50;6.20;;;;;;;-14.81;90.44;99682.53;5052306;28;20041;-66
2024/02/08 00:06:40;;;;;;;7.07;6.10;;;;;;;-14.96;90.55;99664.13;5054174;28;20078;-66
2024/02/08 00:09:07;;;;;;;9.37;6.27;;;;;;;-14.88;90.93;99691.19;5053791;28;20076;-67
2024/02/08 00:11:33;;;;;;;16.08;7.30;;;;;;;-15.57;91.56;99584.47;5054476;28;20029;-67
2024/02/08 00:13:59;;;;;;;10.10;6.57;;;;;;;-15.05;91.28;99683.03;5052775;28;20372;-66
2024/02/08 00:16:26;;;;;;;8.05;6.88;;;;;;;-14.94;92.04;99704.09;5052246;28;20041;-66
2024/02/08 00:18:56;;;;;;;12.98;7.72;;;;;;;-14.93;92.62;99708.34;5052953;28;20036;-67
2024/02/08 00:21:21;;;;;;;13.10;7.75;;;;;;;-14.90;91.62;99700.63;5053356;28;20056;-66
2024/02/08 00:23:47;;;;;;;17.33;8.20;;;;;;;-14.87;92.71;99695.44;5053415;28;20041;-68
2024/02/08 00:26:17;;;;;;;10.17;6.93;;;;;;;-14.76;92.39;99711.38;5053488;28;20411;-69
2024/02/08 00:28:42;;;;;;;8.85;6.72;;;;;;;-14.79;91.07;99708.06;5053174;28;20503;-68
2024/02/08 00:31:08;;;;;;;11.93;8.07;;;;;;;-15.11;91.07;99648.22;5053117;28;20032;-67
2024/02/08 00:33:34;;;;;;;10.97;7.23;;;;;;;-14.57;90.82;99728.91;5051660;28;20037;-66
2024/02/08 00:36:01;;;;;;;12.75;7.90;;;;;;;-14.72;89.56;99719.84;5052331;28;20029;-66
2024/02/08 00:38:29;;;;;;;8.60;6.38;;;;;;;-14.81;90.22;99704.69;5051506;28;20040;-69
2024/02/08 00:40:55;;;;;;;10.02;6.53;;;;;;;-14.56;90.22;99731.44;5053430;28;20037;-67
2024/02/08 00:43:21;;;;;;;12.43;7.40;;;;;;;-14.47;89.63;99725.28;5053372;28;20032;-69
2024/02/08 00:45:47;;;;;;;9.97;6.57;;;;;;;-14.51;88.78;99719.41;5052855;28;20203;-68
2024/02/08 00:48:12;;;;;;;15.55;7.88;;;;;;;-14.66;87.72;99706.09;5053005;28;20268;-67
2024/02/08 00:50:38;;;;;;;11.17;6.47;;;;;;;-14.68;86.73;99730.84;5053056;28;20082;-66
2024/02/08 00:53:05;;;;;;;11.67;7.17;;;;;;;-14.91;87.34;99709.16;5051321;28;20040;-68
2024/02/08 00:55:34;;;;;;;8.20;6.53;;;;;;;-14.66;86.79;99739.34;5051884;28;20040;-67
2024/02/08 00:58:02;;;;;;;7.95;6.10;;;;;;;-14.72;85.98;99736.03;5053040;28;20479;-67
2024/02/08 01:00:30;;;;;;;9.95;7.25;;;;;;;-14.79;85.71;99759.16;5053112;28;20028;-67
2024/02/08 01:02:58;;;;;;;13.50;5.85;;;;;;;-14.90;86.85;99755.97;5053633;28;20529;-66
2024/02/08 01:05:24;;;;;;;10.95;7.57;;;;;;;-14.91;86.98;99746.63;5052792;28;20449;-66
2024/02/08 01:07:51;;;;;;;10.60;7.10;;;;;;;-15.02;87.26;99728.97;5053187;28;20120;-66
2024/02/08 01:10:17;;;;;;;11.48;6.75;;;;;;;-14.95;86.35;99747.56;5051702;28;20036;-67
2024/02/08 01:12:43;;;;;;;14.98;8.25;;;;;;;-14.91;87.76;99756.84;5034849;28;20381;-67
2024/02/08 01:15:14;;;;;;;18.23;7.47;;;;;;;-15.15;87.46;99740.25;5034509;28;20083;-68
2024/02/08 01:17:41;;;;;;;12.00;6.45;;;;;;;-15.17;87.90;99752.22;5052470;28;20124;-66
2024/02/08 01:20:09;;;;;;;12.65;7.25;;;;;;;-15.12;88.04;99776.81;5051188;28;20556;-66
2024/02/08 01:22:35;;;;;;;7.22;5.93;;;;;;;-15.23;88.42;99762.56;5050934;28;20076;-67
2024/02/08 01:25:01;;;;;;;8.75;6.30;;;;;;;-15.24;87.88;99771.09;5051790;28;20492;-66
2024/02/08 01:27:30;;;;;;;15.95;5.80;;;;;;;-15.38;87.59;99769.59;5051349;28;20033;-66
2024/02/08 01:29:59;;;;;;;6.70;6.03;;;;;;;-15.47;87.77;99777.41;5050828;28;20041;-66
2024/02/08 01:32:29;;;;;;;7.43;5.90;;;;;;;-15.41;88.48;99790.06;5052145;28;20040;-66
2024/02/08 01:34:55;;;;;;;9.30;5.63;;;;;;;-16.56;87.53;99619.31;5052838;28;20040;-68
2024/02/08 01:37:20;;;;;;;6.80;5.20;;;;;;;-15.57;87.96;99798.00;5052574;28;20041;-68
2024/02/08 01:39:46;;;;;;;7.30;6.37;;;;;;;-15.77;88.46;99771.13;5052873;28;20068;-69
2024/02/08 01:42:13;;;;;;;7.47;6.00;;;;;;;-15.62;88.49;99790.44;5052930;28;20477;-68
2024/02/08 01:45:02;;;;;;;7.47;5.40;;;;;;;-15.62;88.48;99795.53;5052368;28;20630;-66
2024/02/08 01:47:29;;;;;;;8.48;6.32;;;;;;;-15.59;87.14;99810.00;5036116;28;20029;-66
2024/02/08 01:49:55;;;;;;;7.23;6.40;;;;;;;-15.70;87.38;99822.88;5054113;28;20396;-66
2024/02/08 01:52:22;;;;;;;6.90;5.97;;;;;;;-15.81;88.53;99809.47;5051871;28;20044;-67
2024/02/08 01:54:49;;;;;;;10.27;7.13;;;;;;;-15.59;89.04;99836.34;5050364;28;20033;-67
2024/02/08 01:57:15;;;;;;;14.65;8.38;;;;;;;-15.82;87.42;99812.88;5051844;28;20035;-68
2024/02/08 01:59:47;;;;;;;7.60;5.63;;;;;;;-16.04;86.95;99797.88;5050991;28;20056;-66
2024/02/08 02:02:15;;;;;;;6.13;5.60;;;;;;;-15.95;87.11;99842.78;5052020;28;20032;-67
2024/02/08 02:04:41;;;;;;;9.88;6.88;;;;;;;-16.17;87.77;99814.22;5051546;28;20037;-67
2024/02/08 02:07:07;;;;;;;10.30;5.60;;;;;;;-16.00;87.86;99849.66;5050026;28;20059;-67
2024/02/08 02:09:32;;;;;;;7.27;5.77;;;;;;;-16.24;88.50;99811.72;5051484;28;20497;-68
2024/02/08 02:12:12;;;;;;;6.33;5.60;;;;;;;-16.56;88.04;99768.81;5033720;28;20028;-66
2024/02/08 02:14:38;;;;;;;7.47;6.13;;;;;;;-16.05;88.72;99862.47;5055224;28;20040;-67
2024/02/08 02:17:25;;;;;;;7.93;6.35;;;;;;;-16.00;87.53;99855.63;5055231;28;20382;-68
2024/02/08 02:19:52;;;;;;;11.75;6.90;;;;;;;-16.07;87.59;99858.28;5051416;28;20065;-67
2024/02/08 02:22:20;;;;;;;8.20;6.28;;;;;;;-16.32;88.29;99807.59;5051315;28;20126;-67
2024/02/08 02:24:49;;;;;;;12.43;6.75;;;;;;;-16.31;88.51;99819.47;5051383;28;20040;-65
2024/02/08 02:27:16;;;;;;;9.07;7.03;;;;;;;-16.21;89.05;99845.69;5051724;28;20053;-68
2024/02/08 02:29:44;;;;;;;7.45;6.28;;;;;;;-16.19;88.70;99855.84;5051356;28;20044;-66
2024/02/08 02:32:21;;;;;;;5.43;4.90;;;;;;;-16.11;88.76;99859.19;5051185;28;20048;-66
2024/02/08 02:34:51;;;;;;;8.63;7.32;;;;;;;-15.98;88.14;99856.44;5050538;28;20037;-68
2024/02/08 02:37:21;;;;;;;5.60;4.93;;;;;;;-15.97;86.87;99860.66;5051252;28;20037;-66
2024/02/08 02:39:46;;;;;;;5.03;4.53;;;;;;;-16.09;87.60;99844.69;5050625;28;20032;-67
2024/02/08 02:42:12;;;;;;;8.13;5.97;;;;;;;-15.97;87.88;99867.47;5050681;28;20067;-68
2024/02/08 02:44:38;;;;;;;11.20;6.43;;;;;;;-16.22;87.29;99841.44;5051055;28;20033;-67
2024/02/08 02:47:03;;;;;;;12.57;8.97;;;;;;;-16.18;88.04;99860.97;5051117;28;20575;-66
2024/02/08 02:49:30;;;;;;;7.63;5.70;;;;;;;-16.20;89.01;99862.66;5034384;28;20029;-68
2024/02/08 02:51:59;;;;;;;10.07;6.05;;;;;;;-16.08;88.76;99882.94;5050066;28;20051;-67
2024/02/08 02:54:30;;;;;;;7.65;6.30;;;;;;;-16.36;87.37;99845.88;5051210;28;20504;-67
2024/02/08 02:56:56;;;;;;;8.73;6.82;;;;;;;-16.27;87.63;99866.16;5050882;28;20286;-66
2024/02/08 02:59:26;;;;;;;8.77;5.22;;;;;;;-16.25;88.63;99872.06;5050982;28;20112;-66
2024/02/08 03:01:55;;;;;;;10.65;7.55;;;;;;;-16.10;89.21;99887.19;5053399;28;20033;-67
2024/02/08 03:04:22;;;;;;;7.35;5.72;;;;;;;-16.14;89.27;99872.81;5053998;28;20618;-67
2024/02/08 03:06:52;;;;;;;7.45;6.15;;;;;;;-15.98;88.61;99894.69;5055471;28;20159;-67
2024/02/08 03:09:23;;;;;;;9.25;7.00;;;;;;;-16.21;88.48;99857.59;5054548;28;20424;-66
2024/02/08 03:11:50;;;;;;;10.77;7.55;;;;;;;-16.04;88.67;99878.63;5054372;28;20036;-66
2024/02/08 03:14:18;;;;;;;7.50;6.43;;;;;;;-15.97;88.38;99887.88;5054657;28;20053;-67
2024/02/08 03:16:45;;;;;;;6.10;5.50;;;;;;;-15.91;88.84;99889.50;5053928;28;20079;-69
2024/02/08 03:19:11;;;;;;;9.20;5.32;;;;;;;-16.06;88.18;99878.66;5053107;28;20072;-67
2024/02/08 03:21:40;;;;;;;10.57;6.03;;;;;;;-15.95;88.61;99908.25;5054595;28;20045;-67
2024/02/08 03:24:09;;;;;;;13.93;6.82;;;;;;;-16.42;88.47;99840.88;5054212;28;20049;-66
2024/02/08 03:26:40;;;;;;;5.80;5.28;;;;;;;-16.03;88.57;99909.22;5054671;28;20025;-66
2024/02/08 03:29:11;;;;;;;7.57;5.70;;;;;;;-16.23;88.89;99878.00;5055724;28;20412;-68
2024/02/08 03:31:45;;;;;;;6.80;5.72;;;;;;;-16.15;89.35;99876.22;5055219;28;20049;-66
2024/02/08 03:34:29;;;;;;;9.23;6.60;;;;;;;-15.84;89.11;99904.75;5053824;28;20040;-67
2024/02/08 03:36:56;;;;;;;10.48;6.32;;;;;;;-15.88;89.11;99898.00;5054426;28;20029;-67
2024/02/08 03:39:25;;;;;;;10.13;6.90;;;;;;;-15.72;88.42;99930.09;5055408;28;20079;-67
2024/02/08 03:41:57;;;;;;;9.57;6.75;;;;;;;-15.85;89.31;99914.97;5057362;28;20029;-69
2024/02/08 03:44:24;;;;;;;13.57;7.35;;;;;;;-16.17;88.71;99888.16;5055768;28;20040;-69
2024/02/08 03:46:53;;;;;;;11.90;7.00;;;;;;;-16.01;89.62;99919.41;5056398;28;20036;-70
2024/02/08 03:49:19;;;;;;;7.97;5.03;;;;;;;-15.99;90.16;99932.97;5053958;28;20032;-70
2024/02/08 03:51:49;;;;;;;12.32;7.22;;;;;;;-16.05;90.62;99941.53;5052882;28;20045;-70
2024/02/08 03:54:17;;;;;;;8.63;6.38;;;;;;;-16.02;91.06;99928.75;5054206;28;20028;-69
2024/02/08 03:56:45;;;;;;;11.60;7.47;;;;;;;-15.91;91.06;99927.75;5053724;28;20043;-69
2024/02/08 03:59:12;;;;;;;9.68;6.90;;;;;;;-15.80;91.27;99943.81;5054162;28;20037;-69
2024/02/08 04:01:42;;;;;;;12.27;6.28;;;;;;;-15.86;91.30;99938.78;5052644;28;20040;-68
2024/02/08 04:04:15;;;;;;;12.75;6.70;;;;;;;-16.08;90.46;99910.97;5054205;28;20061;-71
2024/02/08 04:07:00;;;;;;;7.75;5.53;;;;;;;-15.97;90.99;99937.19;5054451;28;20033;-68
2024/02/08 04:09:36;;;;;;;8.52;6.63;;;;;;;-16.33;91.01;99878.97;5055136;28;20032;-66
2024/02/08 04:55:57;;;;;;;9.05;6.55;;;;;;;-16.26;91.43;99954.50;5054824;28;20452;-68
2024/02/08 04:58:23;;;;;;;13.20;6.20;;;;;;;-16.25;91.82;99966.41;5053886;28;20080;-68
2024/02/08 05:00:49;;;;;;;8.38;7.35;;;;;;;-16.25;91.11;100002.09;5055218;28;20091;-67
2024/02/08 05:03:17;;;;;;;8.97;6.43;;;;;;;-16.29;91.50;99987.69;5038796;28;20037;-67
2024/02/08 05:05:46;;;;;;;7.22;6.38;;;;;;;-16.08;91.81;100018.09;5054280;28;20036;-68
2024/02/08 05:08:12;;;;;;;9.20;6.85;;;;;;;-15.98;91.92;100014.56;5053422;28;20029;-68
2024/02/08 05:10:38;;;;;;;8.30;6.93;;;;;;;-16.04;91.64;100006.16;5053410;28;20040;-67
2024/02/08 05:13:04;;;;;;;7.80;6.03;;;;;;;-16.22;91.05;99989.31;5051573;28;20483;-72
2024/02/08 05:15:30;;;;;;;11.18;7.63;;;;;;;-16.00;91.53;100016.28;5051234;28;20125;-70
2024/02/08 05:17:56;;;;;;;15.48;7.85;;;;;;;-16.03;91.93;100018.88;5051233;28;20053;-68
2024/02/08 05:20:25;;;;;;;9.43;7.13;;;;;;;-16.30;90.92;100004.69;5050811;28;20085;-69
2024/02/08 05:22:51;;;;;;;9.48;6.93;;;;;;;-16.21;90.85;100008.84;5051255;28;20048;-67
2024/02/08 05:25:20;;;;;;;8.10;6.70;;;;;;;-16.22;89.97;100002.06;5034330;28;20523;-69
2024/02/08 05:27:47;;;;;;;7.97;6.68;;;;;;;-16.25;89.14;100017.38;5046278;28;20079;-66
2024/02/08 05:30:17;;;;;;;6.97;6.20;;;;;;;-16.46;90.77;99992.13;5052557;28;20037;-66
2024/02/08 05:32:43;;;;;;;7.90;6.85;;;;;;;-16.27;91.38;100019.13;5049428;28;20469;-66
2024/02/08 05:35:13;;;;;;;8.63;6.18;;;;;;;-16.21;89.93;100024.16;5051939;28;20132;-67
2024/02/08 05:37:39;;;;;;;12.57;6.78;;;;;;;-16.24;89.95;100029.28;5052645;28;20040;-65
2024/02/08 05:40:06;;;;;;;14.13;7.82;;;;;;;-16.60;89.75;99995.63;5053601;28;20120;-65
2024/02/08 05:42:33;;;;;;;9.30;6.28;;;;;;;-16.65;90.81;100002.47;5053632;28;20123;-65
2024/02/08 05:45:18;;;;;;;10.88;8.13;;;;;;;-16.92;90.36;99967.88;5052283;28;20033;-65
2024/02/08 05:47:48;;;;;;;10.68;7.95;;;;;;;-16.47;90.35;100047.34;5033904;28;20063;-64
2024/02/08 05:50:24;;;;;;;23.92;8.27;;;;;;;-16.64;90.21;100019.44;5051268;28;20032;-66
2024/02/08 05:52:57;;;;;;;16.55;7.30;;;;;;;-16.49;91.01;100060.94;5049776;28;20519;-68
2024/02/08 05:55:26;;;;;;;22.83;10.00;;;;;;;-16.53;91.36;100041.44;5046663;28;20055;-66
2024/02/08 05:57:52;;;;;;;16.30;7.28;;;;;;;-16.44;90.85;100067.72;5051142;28;20032;-68
2024/02/08 06:00:45;;;;;;;17.17;8.98;;;;;;;-16.61;90.70;100047.44;5043731;28;20120;-68
2024/02/08 06:03:17;;;;;;;11.48;7.13;;;;;;;-16.52;91.11;100058.41;5041677;28;20044;-66
2024/02/08 06:05:49;;;;;;;16.58;7.65;;;;;;;-16.66;90.47;100045.81;5040605;28;20124;-69
2024/02/08 06:08:25;;;;;;;13.20;7.40;;;;;;;-16.64;91.14;100037.28;5045939;28;20095;-66
2024/02/08 06:10:52;;;;;;;11.48;8.05;;;;;;;-16.58;91.00;100028.72;5044686;28;20041;-66
2024/02/08 06:13:22;;;;;;;10.95;6.30;;;;;;;-16.32;90.45;100071.84;5041223;28;20037;-66
2024/02/08 06:15:50;;;;;;;17.80;8.23;;;;;;;-16.82;90.27;99988.19;5039888;28;20045;-67
2024/02/08 06:18:24;;;;;;;7.43;6.00;;;;;;;-16.37;90.20;100076.16;5048354;28;20037;-64
2024/02/08 06:21:12;;;;;;;10.82;8.35;;;;;;;-16.58;90.38;100031.28;5039780;28;20295;-65
2024/02/08 06:23:45;;;;;;;15.48;8.73;;;;;;;-16.36;89.65;100085.47;5043328;28;20056;-66
2024/02/08 06:28:46;;;;;;;14.50;8.13;;;;;;;-16.73;89.87;100054.38;5047558;28;20404;-66
2024/02/08 06:31:17;;;;;;;13.63;9.15;;;;;;;-16.62;90.07;100072.94;5047757;28;20026;-66
2024/02/08 06:34:09;;;;;;;19.23;9.73;;;;;;;-16.96;90.20;100021.41;5051065;28;20044;-65
2024/02/08 06:36:34;;;;;;;13.20;8.35;;;;;;;-16.52;90.58;100096.63;5053911;28;20092;-66
2024/02/08 06:39:20;;;;;;;13.73;8.73;;;;;;;-16.52;90.60;100094.09;5054599;28;20049;-65
2024/02/08 06:41:52;;;;;;;11.35;7.68;;;;;;;-16.62;90.67;100073.78;5052883;28;20033;-65
2024/02/08 07:39:30;;;;;;;11.40;7.55;;;;;;;-15.46;87.88;100179.03;5060908;28;20484;-67
2024/02/08 07:42:00;;;;;;;13.13;6.87;;;;;;;-15.59;88.13;100167.28;5056495;28;20087;-70
2024/02/08 07:44:30;;;;;;;14.50;7.28;;;;;;;-15.69;88.63;100153.75;5050489;28;20743;-67
2024/02/08 07:46:56;;;;;;;13.02;7.60;;;;;;;-15.55;88.56;100185.06;5051265;28;20182;-71
2024/02/08 07:49:41;;;;;;;12.13;9.20;;;;;;;-15.57;89.23;100202.13;5049165;28;20025;-67
2024/02/08 07:52:19;;;;;;;12.15;8.02;;;;;;;-15.65;89.92;100183.47;5041388;28;20053;-69
2024/02/08 07:57:34;;;;;;;15.20;9.70;;;;;;;-15.55;90.36;100202.94;5053661;28;20047;-70
2024/02/08 08:00:00;;;;;;;11.00;8.43;;;;;;;-15.48;90.31;100204.56;5052225;28;20037;-70
2024/02/08 08:02:29;;;;;;;16.10;9.75;;;;;;;-15.62;90.31;100167.28;5047018;28;20591;-71
2024/02/08 08:04:56;;;;;;;12.05;9.70;;;;;;;-15.57;90.07;100178.28;5033120;28;20037;-71
2024/02/08 08:07:25;;;;;;;13.30;9.43;;;;;;;-15.39;90.04;100195.97;5052628;28;20074;-70
2024/02/08 08:09:59;;;;;;;12.93;7.82;;;;;;;-15.27;90.57;100210.34;5029603;28;20033;-68
2024/02/08 08:12:28;;;;;;;11.95;7.28;;;;;;;-15.15;90.58;100220.41;5052121;28;20033;-69
2024/02/08 08:17:40;;;;;;;18.95;7.75;;;;;;;-14.99;91.13;100198.13;5050455;28;20132;-71
2024/02/08 08:23:07;;;;;;;10.20;7.65;;;;;;;-14.48;89.90;100219.63;5044985;28;20052;-71
2024/02/08 08:26:00;;;;;;;11.70;7.78;;;;;;;-14.73;88.46;100196.94;5048909;28;20047;-71
2024/02/08 08:31:00;;;;;;;13.82;9.05;;;;;;;-14.85;89.45;100163.00;5052932;28;20174;-69
2024/02/08 08:36:28;;;;;;;10.77;7.55;;;;;;;-15.00;88.54;100138.50;5046311;28;20033;-72
2024/02/08 08:39:29;;;;;;;19.88;8.05;;;;;;;-14.36;88.92;100233.94;5046379;28;20045;-71
2024/02/08 08:41:46;;;;;;;12.60;9.60;;;;;;;-14.42;88.22;100233.16;5050681;28;20119;-71
2024/02/08 08:44:18;;;;;;;14.93;9.25;;;;;;;-14.39;88.15;100234.84;5048776;28;20044;-69
2024/02/08 08:46:44;;;;;;;12.60;7.10;;;;;;;-14.26;88.93;100235.50;5049884;28;20033;-68
2024/02/08 08:49:14;;;;;;;13.93;9.68;;;;;;;-14.08;88.35;100240.38;5051166;28;20025;-70
2024/02/08 08:51:43;;;;;;;10.35;6.43;;;;;;;-14.07;87.41;100226.72;5047436;28;20044;-70
2024/02/08 08:54:20;;;;;;;12.52;8.68;;;;;;;-14.10;86.76;100235.28;5046561;28;20040;-71
2024/02/08 08:56:49;;;;;;;13.57;8.30;;;;;;;-14.13;87.46;100237.88;5049976;28;20091;-71
2024/02/08 08:59:19;;;;;;;;;;;;;;;-13.94;88.02;100246.13;5049983;28;20052;-72
2024/02/08 09:01:48;;;;;;;15.88;9.25;;;;;;;-14.07;87.28;100200.28;5049722;28;20548;-70
2024/02/08 09:04:32;;;;;;;12.93;8.10;;;;;;;-13.93;86.49;100237.56;5052545;28;20051;-72
2024/02/08 09:07:08;;;;;;;19.27;9.82;;;;;;;-14.03;86.51;100242.84;5052409;28;20068;-69
2024/02/08 09:10:17;;;;;;;11.65;8.55;;;;;;;-13.91;87.63;100242.66;5047998;28;20116;-69
2024/02/08 09:15:28;;;;;;;13.43;8.30;;;;;;;-13.62;86.38;100255.88;5029951;28;20428;-71
2024/02/08 09:18:07;;;;;;;16.63;7.85;;;;;;;-13.46;87.02;100261.59;5042993;28;20515;-66
2024/02/08 09:20:43;;;;;;;12.88;8.50;;;;;;;-13.53;85.42;100240.38;5063414;28;21575;-67
2024/02/08 09:23:16;;;;;;;15.95;9.55;;;;;;;-14.69;84.82;100076.78;5054374;28;20049;-69
2024/02/08 09:25:45;;;;;;;13.98;8.65;;;;;;;-13.42;85.97;100267.50;5050622;28;20045;-70
2024/02/08 09:28:26;;;;;;;18.42;10.05;;;;;;;-13.43;85.02;100260.69;5059989;28;20052;-67
2024/02/08 09:30:59;;;;;;;21.40;10.27;;;;;;;-13.58;85.08;100242.16;5053452;28;20128;-67
2024/02/08 09:33:44;;;;;;;21.30;10.00;;;;;;;-13.41;85.74;100270.06;5053058;28;20045;-70
2024/02/08 09:36:13;;;;;;;18.63;10.82;;;;;;;-13.48;86.74;100223.22;5058907;28;20037;-70
2024/02/08 09:38:45;;;;;;;15.05;11.60;;;;;;;-13.17;85.97;100245.75;5059801;28;20163;-69
2024/02/08 09:41:16;;;;;;;12.57;9.20;;;;;;;-13.00;84.92;100271.88;5043355;28;20130;-69
2024/02/08 09:43:44;;;;;;;12.52;9.23;;;;;;;-13.32;85.67;100179.38;5058525;28;20132;-68
2024/02/08 09:46:28;;;;;;;26.77;12.20;;;;;;;-12.80;82.78;100258.69;5055660;28;20045;-69
2024/02/08 09:49:13;;;;;;;26.05;13.20;;;;;;;-12.84;83.62;100247.66;5049640;28;20048;-71
2024/02/08 09:51:55;;;;;;;16.90;10.88;;;;;;;-12.77;84.41;100237.25;5058344;28;20130;-71
2024/02/08 09:54:30;;;;;;;25.02;12.55;;;;;;;-12.59;83.17;100260.00;5048835;28;20037;-67
2024/02/08 09:57:01;;;;;;;19.65;11.60;;;;;;;-12.64;83.25;100261.81;5054011;28;20048;-68
2024/02/08 10:02:32;;;;;;;15.75;10.45;;;;;;;-12.78;83.35;100251.81;5057541;28;20033;-71
2024/02/08 10:05:48;;;;;;;21.30;11.50;;;;;;;-12.42;82.54;100260.53;5076518;28;20408;-67
2024/02/08 10:08:09;;;;;;;17.08;9.75;;;;;;;-11.92;80.99;100263.69;5058884;28;20045;-68
2024/02/08 10:10:56;;;;;;;22.83;9.57;;;;;;;-11.85;78.05;100282.38;5053376;28;20037;-70
2024/02/08 10:13:26;;;;;;;22.40;10.32;;;;;;;-12.35;78.09;100244.13;5059253;28;20415;-70
2024/02/08 10:15:56;;;;;;;18.42;10.30;;;;;;;-12.40;79.22;100271.59;5049383;28;20114;-68
2024/02/08 10:18:33;;;;;;;19.77;10.20;;;;;;;-12.35;81.15;100276.63;5053574;28;20080;-68
2024/02/08 10:21:12;;;;;;;17.27;9.65;;;;;;;-12.78;80.19;100240.69;5055119;28;20084;-69
2024/02/08 10:23:59;;;;;;;15.90;10.73;;;;;;;-12.45;81.16;100290.50;5058265;28;20025;-70
2024/02/08 10:26:38;;;;;;;14.90;9.20;;;;;;;-12.34;80.53;100289.41;5056177;28;20137;-69
2024/02/08 10:29:07;;;;;;;15.13;9.13;;;;;;;-12.44;80.72;100277.63;5063131;28;20061;-70
2024/02/08 10:31:37;;;;;;;18.60;8.95;;;;;;;-12.43;80.50;100274.22;5045710;28;20038;-68
2024/02/08 10:34:09;;;;;;;15.25;10.10;;;;;;;-12.44;80.59;100289.63;5042609;28;20045;-68
2024/02/08 10:36:39;;;;;;;12.07;8.57;;;;;;;-12.43;81.09;100307.56;5043478;28;20037;-69
2024/02/08 10:39:23;;;;;;;14.35;9.52;;;;;;;-12.53;81.14;100270.97;5044346;28;20456;-71
2024/02/08 10:44:29;;;;;;;15.38;8.70;;;;;;;-12.29;80.15;100295.28;5043616;28;20045;-69
2024/02/08 10:47:09;;;;;;;15.70;9.07;;;;;;;-12.39;80.92;100275.00;5046212;28;20037;-69
2024/02/08 10:49:50;;;;;;;16.63;9.32;;;;;;;-12.20;80.17;100313.06;5052227;28;20111;-70
2024/02/08 10:52:22;;;;;;;13.68;9.88;;;;;;;-12.50;80.84;100275.19;5037177;28;20036;-69
2024/02/08 10:54:51;;;;;;;18.98;10.20;;;;;;;-12.66;81.38;100266.13;5044167;28;20116;-70
2024/02/08 11:00:49;;;;;;;20.25;11.18;;;;;;;-12.53;80.01;100294.06;5048827;28;20092;-69
2024/02/08 11:02:48;;;;;;;18.73;10.45;;;;;;;-12.41;80.90;100323.78;5042320;28;20405;-72
2024/02/08 11:05:34;;;;;;;18.85;10.50;;;;;;;-12.54;80.45;100324.88;5039581;28;20052;-68
2024/02/08 11:08:07;;;;;;;14.82;9.00;;;;;;;-12.86;81.56;100323.75;5037561;28;20488;-68
2024/02/08 11:10:33;;;;;;;16.02;9.85;;;;;;;-12.99;82.86;100298.38;5036419;28;20041;-70
2024/02/08 11:13:10;;;;;;;16.33;11.63;;;;;;;-12.76;82.83;100337.25;5047665;28;20041;-68
2024/02/08 11:15:41;;;;;;;11.88;8.60;;;;;;;-12.66;82.85;100343.06;5045023;28;20097;-67
2024/02/08 11:18:33;;;;;;;13.77;8.13;;;;;;;-12.61;82.06;100343.81;5044231;28;20524;-69
2024/02/08 11:21:12;;;;;;;12.88;9.25;;;;;;;-12.60;82.00;100332.69;5040273;28;20040;-68
2024/02/08 11:23:45;;;;;;;15.52;9.80;;;;;;;-12.79;81.90;100293.72;5037398;28;20037;-69
2024/02/08 11:26:12;;;;;;;18.42;8.82;;;;;;;-12.60;81.52;100325.84;5035420;28;20049;-68
2024/02/08 11:28:54;;;;;;;16.83;8.97;;;;;;;-12.60;81.70;100312.16;5038715;28;20167;-68
2024/02/08 11:31:26;;;;;;;17.45;9.52;;;;;;;-12.41;81.80;100343.47;5031835;28;20461;-71
2024/02/08 11:33:55;;;;;;;7.55;6.78;;;;;;;-12.45;81.78;100337.50;5042481;28;20033;-68
2024/02/08 11:36:34;;;;;;;10.82;7.57;;;;;;;-12.33;81.43;100347.56;5034849;28;20056;-69
2024/02/08 11:39:21;;;;;;;14.00;8.13;;;;;;;-12.32;81.22;100354.38;5042441;28;20041;-69
2024/02/08 11:41:48;;;;;;;13.32;7.75;;;;;;;-12.59;81.29;100308.72;5030887;28;20102;-68
2024/02/08 11:44:25;;;;;;;12.63;8.77;;;;;;;-12.44;81.37;100340.94;5037325;28;20040;-70
2024/02/08 11:46:59;;;;;;;11.77;8.52;;;;;;;-12.61;81.57;100310.47;5042337;28;20037;-70
2024/02/08 11:49:35;;;;;;;10.50;7.82;;;;;;;-12.51;82.55;100337.63;5040811;28;20048;-70
2024/02/08 11:52:10;;;;;;;11.77;8.45;;;;;;;-12.37;82.53;100347.66;5042008;28;20033;-69
2024/02/08 11:54:43;;;;;;;9.88;7.03;;;;;;;-12.41;82.24;100316.09;5047524;28;20033;-69
2024/02/08 11:57:11;;;;;;;9.88;7.00;;;;;;;-12.29;80.91;100305.56;5048420;28;20032;-70
2024/02/08 11:59:38;;;;;;;9.48;7.63;;;;;;;-11.91;79.50;100355.25;5049778;28;20045;-70
2024/02/08 12:02:16;;;;;;;12.75;8.77;;;;;;;-12.12;79.77;100340.31;5032143;28;20437;-69
2024/02/08 12:04:43;;;;;;;15.48;9.15;;;;;;;-12.51;80.39;100286.34;5049304;28;20040;-70
2024/02/08 12:07:14;;;;;;;15.85;9.35;;;;;;;-12.14;80.89;100358.31;5048324;28;20048;-74
2024/02/08 12:09:40;;;;;;;13.63;8.10;;;;;;;-12.51;81.06;100311.97;5048857;28;20421;-69
2024/02/08 12:12:08;;;;;;;11.75;7.72;;;;;;;-12.18;81.67;100363.53;5049327;28;20033;-72
2024/02/08 12:14:39;;;;;;;13.07;9.00;;;;;;;-12.08;81.11;100362.47;5053178;28;20072;-68
2024/02/08 12:17:06;;;;;;;13.05;7.93;;;;;;;-11.97;80.52;100370.81;5046705;28;20489;-70
2024/02/08 12:19:32;;;;;;;12.15;8.45;;;;;;;-12.17;80.35;100329.28;5052999;28;20061;-70
2024/02/08 12:22:03;;;;;;;13.33;7.67;;;;;;;-11.73;81.14;100370.25;5053235;28;20037;-71
2024/02/08 12:24:32;;;;;;;12.60;7.10;;;;;;;-11.52;80.18;100383.53;5049402;28;20043;-70
2024/02/08 12:27:08;;;;;;;14.00;7.70;;;;;;;-11.61;80.25;100385.41;5059887;28;20100;-73
2024/02/08 12:29:39;;;;;;;9.98;7.22;;;;;;;-11.79;79.62;100374.72;5065633;28;20040;-71
2024/02/08 12:32:16;;;;;;;8.98;7.80;;;;;;;-11.85;79.93;100368.00;5051993;28;20029;-74
2024/02/08 12:34:45;;;;;;;8.20;7.03;;;;;;;-11.86;80.36;100384.25;5050080;28;20497;-70
2024/02/08 12:37:12;;;;;;;10.93;7.67;;;;;;;-11.92;81.46;100368.97;5050626;28;20136;-71
2024/02/08 12:39:40;;;;;;;16.98;7.72;;;;;;;-12.13;80.73;100344.63;5047965;28;20391;-72
2024/02/08 12:42:07;;;;;;;10.83;7.47;;;;;;;-11.95;80.74;100371.63;5032156;28;20118;-71
2024/02/08 12:44:36;;;;;;;10.05;7.28;;;;;;;-12.14;81.16;100322.38;5043976;28;20782;-72
2024/02/08 12:47:06;;;;;;;10.63;7.60;;;;;;;-12.04;80.49;100348.72;5045242;28;20051;-70
2024/02/08 12:49:35;;;;;;;14.25;9.02;;;;;;;-12.01;81.27;100379.44;5053574;28;20041;-72
2024/02/08 12:52:09;;;;;;;16.13;9.80;;;;;;;-12.04;82.10;100375.22;5041405;28;20041;-73
2024/02/08 12:54:35;;;;;;;11.05;8.20;;;;;;;-12.14;81.03;100363.47;5045168;28;20044;-72
2024/02/08 12:57:12;;;;;;;10.00;6.60;;;;;;;-12.23;80.82;100351.63;5045519;28;20489;-69
2024/02/08 12:59:41;;;;;;;14.70;7.25;;;;;;;-12.23;81.41;100356.75;5048165;28;20171;-73
2024/02/08 13:02:16;;;;;;;13.68;8.80;;;;;;;-11.98;81.27;100389.66;5049739;28;20124;-71
2024/02/08 13:04:44;;;;;;;13.30;7.05;;;;;;;-12.03;81.32;100394.03;5042384;28;20048;-69
2024/02/08 13:07:36;;;;;;;18.55;8.20;;;;;;;-12.71;82.26;100284.19;5037289;28;20500;-70
2024/02/08 13:10:03;;;;;;;16.73;7.18;;;;;;;-12.39;83.64;100336.59;5012832;28;20123;-70
2024/02/08 13:12:30;;;;;;;10.45;7.70;;;;;;;-12.39;84.16;100329.72;5035956;28;20041;-70
2024/02/08 13:15:02;;;;;;;12.13;7.37;;;;;;;-12.12;83.17;100376.25;5042804;28;20033;-70
2024/02/08 13:17:33;;;;;;;9.48;5.68;;;;;;;-12.06;82.82;100376.97;5047470;28;20048;-71
2024/02/08 13:20:16;;;;;;;11.98;7.35;;;;;;;-11.94;83.05;100378.44;5045353;28;20057;-70
2024/02/08 13:22:47;;;;;;;9.23;6.35;;;;;;;-12.00;82.71;100363.16;5038418;28;20135;-71
2024/02/08 13:25:15;;;;;;;13.93;8.60;;;;;;;-12.01;82.01;100362.31;5048615;28;20053;-71
2024/02/08 13:27:42;;;;;;;12.13;7.38;;;;;;;-11.97;82.54;100373.38;5038006;28;20045;-72
2024/02/08 13:30:17;;;;;;;14.23;7.50;;;;;;;-12.00;82.55;100391.41;5057247;28;20038;-73
2024/02/08 13:32:49;;;;;;;12.95;8.10;;;;;;;-12.23;82.39;100358.47;5055925;28;20056;-74
2024/02/08 13:35:20;;;;;;;11.85;7.07;;;;;;;-12.22;83.38;100366.16;5024131;28;20037;-72
2024/02/08 13:37:48;;;;;;;14.25;7.70;;;;;;;-12.13;84.16;100374.56;5040558;28;20136;-70
2024/02/08 13:40:15;;;;;;;11.98;8.43;;;;;;;-12.20;83.64;100366.97;5037854;28;20057;-74